sensor_id;sensor_type;location;lat;lon;timestamp;P1;durP1;ratioP1;P2;durP2;ratioP2
4305;SDS011;2166;49.926;8.608;2023-07-24T00:00:04;5.60;;;3.20;;
4305;SDS011;2166;49.926;8.608;2023-07-24T00:02:33;5.70;;;3.30;;
4305;SDS011;2166;49.926;8.608;2023-07-24T00:05:03;4.03;;;3.63;;
4305;SDS011;2166;49.926;8.608;2023-07-24T00:07:33;4.07;;;3.20;;
4305;SDS011;2166;49.926;8.608;2023-07-24T00:10:01;5.82;;;3.70;;
4305;SDS011;2166;49.926;8.608;2023-07-24T00:12:30;4.32;;;3.10;;
4305;SDS011;2166;49.926;8.608;2023-07-24T00:14:59;7.72;;;3.35;;
4305;SDS011;2166;49.926;8.608;2023-07-24T00:17:27;4.57;;;3.55;;
4305;SDS011;2166;49.926;8.608;2023-07-24T00:19:55;3.63;;;3.20;;
4305;SDS011;2166;49.926;8.608;2023-07-24T00:22:25;6.95;;;3.20;;
4305;SDS011;2166;49.926;8.608;2023-07-24T00:24:54;7.57;;;3.47;;
4305;SDS011;2166;49.926;8.608;2023-07-24T00:27:22;7.88;;;3.90;;
4305;SDS011;2166;49.926;8.608;2023-07-24T00:29:51;6.13;;;3.28;;
4305;SDS011;2166;49.926;8.608;2023-07-24T00:32:20;6.63;;;3.33;;
4305;SDS011;2166;49.926;8.608;2023-07-24T00:34:48;6.55;;;3.85;;
4305;SDS011;2166;49.926;8.608;2023-07-24T00:37:16;5.53;;;3.70;;
4305;SDS011;2166;49.926;8.608;2023-07-24T00:39:47;4.10;;;3.10;;
4305;SDS011;2166;49.926;8.608;2023-07-24T00:42:16;6.90;;;3.55;;
4305;SDS011;2166;49.926;8.608;2023-07-24T00:44:47;6.13;;;4.15;;
4305;SDS011;2166;49.926;8.608;2023-07-24T00:47:16;5.03;;;3.55;;
4305;SDS011;2166;49.926;8.608;2023-07-24T00:49:45;7.75;;;3.92;;
4305;SDS011;2166;49.926;8.608;2023-07-24T00:52:14;6.03;;;3.45;;
4305;SDS011;2166;49.926;8.608;2023-07-24T00:54:43;5.60;;;3.25;;
4305;SDS011;2166;49.926;8.608;2023-07-24T00:57:15;8.30;;;3.30;;
4305;SDS011;2166;49.926;8.608;2023-07-24T00:59:44;5.10;;;3.13;;
4305;SDS011;2166;49.926;8.608;2023-07-24T01:02:13;7.45;;;4.32;;
4305;SDS011;2166;49.926;8.608;2023-07-24T01:04:41;5.15;;;3.70;;
4305;SDS011;2166;49.926;8.608;2023-07-24T01:07:09;4.03;;;3.50;;
4305;SDS011;2166;49.926;8.608;2023-07-24T01:09:38;3.90;;;3.38;;
4305;SDS011;2166;49.926;8.608;2023-07-24T01:12:10;6.18;;;3.63;;
4305;SDS011;2166;49.926;8.608;2023-07-24T01:14:47;6.78;;;3.40;;
4305;SDS011;2166;49.926;8.608;2023-07-24T01:17:20;6.13;;;3.85;;
4305;SDS011;2166;49.926;8.608;2023-07-24T01:19:54;5.65;;;3.60;;
4305;SDS011;2166;49.926;8.608;2023-07-24T01:22:25;8.23;;;3.90;;
4305;SDS011;2166;49.926;8.608;2023-07-24T01:25:09;6.13;;;3.30;;
4305;SDS011;2166;49.926;8.608;2023-07-24T01:27:43;4.82;;;3.50;;
4305;SDS011;2166;49.926;8.608;2023-07-24T01:30:17;5.57;;;3.97;;
4305;SDS011;2166;49.926;8.608;2023-07-24T01:32:46;6.35;;;3.67;;
4305;SDS011;2166;49.926;8.608;2023-07-24T01:35:15;7.88;;;4.07;;
4305;SDS011;2166;49.926;8.608;2023-07-24T01:37:44;7.20;;;3.72;;
4305;SDS011;2166;49.926;8.608;2023-07-24T01:40:14;5.78;;;4.10;;
4305;SDS011;2166;49.926;8.608;2023-07-24T01:42:44;5.82;;;3.90;;
4305;SDS011;2166;49.926;8.608;2023-07-24T01:45:13;5.07;;;3.78;;
4305;SDS011;2166;49.926;8.608;2023-07-24T01:47:43;11.45;;;4.20;;
4305;SDS011;2166;49.926;8.608;2023-07-24T01:50:12;5.75;;;4.22;;
4305;SDS011;2166;49.926;8.608;2023-07-24T01:52:41;9.07;;;4.40;;
4305;SDS011;2166;49.926;8.608;2023-07-24T01:55:10;8.00;;;4.15;;
4305;SDS011;2166;49.926;8.608;2023-07-24T01:57:39;6.00;;;4.28;;
4305;SDS011;2166;49.926;8.608;2023-07-24T02:00:09;6.53;;;4.47;;
4305;SDS011;2166;49.926;8.608;2023-07-24T02:02:38;10.70;;;4.95;;
4305;SDS011;2166;49.926;8.608;2023-07-24T02:05:07;7.32;;;5.05;;
4305;SDS011;2166;49.926;8.608;2023-07-24T02:07:36;6.05;;;4.20;;
4305;SDS011;2166;49.926;8.608;2023-07-24T02:10:05;5.55;;;4.82;;
4305;SDS011;2166;49.926;8.608;2023-07-24T02:12:34;6.50;;;4.82;;
4305;SDS011;2166;49.926;8.608;2023-07-24T02:15:03;7.07;;;5.15;;
4305;SDS011;2166;49.926;8.608;2023-07-24T02:17:33;8.18;;;5.13;;
4305;SDS011;2166;49.926;8.608;2023-07-24T02:20:02;10.30;;;5.00;;
4305;SDS011;2166;49.926;8.608;2023-07-24T02:22:31;8.02;;;4.93;;
4305;SDS011;2166;49.926;8.608;2023-07-24T02:24:59;7.15;;;4.38;;
4305;SDS011;2166;49.926;8.608;2023-07-24T02:27:29;9.93;;;5.60;;
4305;SDS011;2166;49.926;8.608;2023-07-24T02:30:01;7.53;;;5.20;;
4305;SDS011;2166;49.926;8.608;2023-07-24T02:32:30;8.68;;;6.22;;
4305;SDS011;2166;49.926;8.608;2023-07-24T02:35:00;8.57;;;5.32;;
4305;SDS011;2166;49.926;8.608;2023-07-24T02:37:28;7.18;;;5.68;;
4305;SDS011;2166;49.926;8.608;2023-07-24T02:39:57;8.35;;;4.97;;
4305;SDS011;2166;49.926;8.608;2023-07-24T02:42:26;6.80;;;5.55;;
4305;SDS011;2166;49.926;8.608;2023-07-24T02:44:55;8.55;;;6.07;;
4305;SDS011;2166;49.926;8.608;2023-07-24T02:47:23;9.18;;;5.78;;
4305;SDS011;2166;49.926;8.608;2023-07-24T02:49:51;8.70;;;5.95;;
4305;SDS011;2166;49.926;8.608;2023-07-24T02:52:21;8.68;;;5.88;;
4305;SDS011;2166;49.926;8.608;2023-07-24T02:54:50;10.98;;;6.20;;
4305;SDS011;2166;49.926;8.608;2023-07-24T02:57:18;10.48;;;5.88;;
4305;SDS011;2166;49.926;8.608;2023-07-24T02:59:47;9.00;;;5.78;;
4305;SDS011;2166;49.926;8.608;2023-07-24T03:02:15;11.07;;;6.60;;
4305;SDS011;2166;49.926;8.608;2023-07-24T03:04:44;9.32;;;6.30;;
4305;SDS011;2166;49.926;8.608;2023-07-24T03:07:13;10.05;;;6.05;;
4305;SDS011;2166;49.926;8.608;2023-07-24T03:09:43;8.50;;;5.68;;
4305;SDS011;2166;49.926;8.608;2023-07-24T03:12:12;8.88;;;5.82;;
4305;SDS011;2166;49.926;8.608;2023-07-24T03:14:40;6.40;;;5.22;;
4305;SDS011;2166;49.926;8.608;2023-07-24T03:17:08;6.97;;;5.45;;
4305;SDS011;2166;49.926;8.608;2023-07-24T03:19:37;8.15;;;5.75;;
4305;SDS011;2166;49.926;8.608;2023-07-24T03:22:06;10.90;;;6.50;;
4305;SDS011;2166;49.926;8.608;2023-07-24T03:24:35;11.15;;;6.28;;
4305;SDS011;2166;49.926;8.608;2023-07-24T03:27:05;8.98;;;5.97;;
4305;SDS011;2166;49.926;8.608;2023-07-24T03:29:33;7.88;;;6.10;;
4305;SDS011;2166;49.926;8.608;2023-07-24T03:32:04;10.70;;;5.20;;
4305;SDS011;2166;49.926;8.608;2023-07-24T03:34:32;9.35;;;6.25;;
4305;SDS011;2166;49.926;8.608;2023-07-24T03:37:01;10.20;;;5.88;;
4305;SDS011;2166;49.926;8.608;2023-07-24T03:39:29;9.15;;;6.47;;
4305;SDS011;2166;49.926;8.608;2023-07-24T03:41:58;8.23;;;6.43;;
4305;SDS011;2166;49.926;8.608;2023-07-24T03:44:27;9.07;;;6.55;;
4305;SDS011;2166;49.926;8.608;2023-07-24T03:46:56;9.68;;;6.60;;
4305;SDS011;2166;49.926;8.608;2023-07-24T03:49:24;12.43;;;6.78;;
4305;SDS011;2166;49.926;8.608;2023-07-24T03:51:53;11.55;;;5.97;;
4305;SDS011;2166;49.926;8.608;2023-07-24T03:54:22;9.68;;;6.43;;
4305;SDS011;2166;49.926;8.608;2023-07-24T03:56:50;10.73;;;6.85;;
4305;SDS011;2166;49.926;8.608;2023-07-24T03:59:19;8.50;;;6.47;;
4305;SDS011;2166;49.926;8.608;2023-07-24T04:01:51;10.00;;;6.72;;
4305;SDS011;2166;49.926;8.608;2023-07-24T04:04:20;9.13;;;6.35;;
4305;SDS011;2166;49.926;8.608;2023-07-24T04:06:49;11.55;;;7.13;;
4305;SDS011;2166;49.926;8.608;2023-07-24T04:09:18;12.85;;;7.68;;
4305;SDS011;2166;49.926;8.608;2023-07-24T04:11:47;12.15;;;6.75;;
4305;SDS011;2166;49.926;8.608;2023-07-24T04:14:15;9.85;;;6.65;;
4305;SDS011;2166;49.926;8.608;2023-07-24T04:16:44;12.18;;;6.65;;
4305;SDS011;2166;49.926;8.608;2023-07-24T04:19:14;13.45;;;6.80;;
4305;SDS011;2166;49.926;8.608;2023-07-24T04:21:43;14.63;;;6.70;;
4305;SDS011;2166;49.926;8.608;2023-07-24T04:24:11;9.38;;;6.35;;
4305;SDS011;2166;49.926;8.608;2023-07-24T04:26:39;8.80;;;6.75;;
4305;SDS011;2166;49.926;8.608;2023-07-24T04:29:08;9.23;;;6.05;;
4305;SDS011;2166;49.926;8.608;2023-07-24T04:31:37;8.77;;;6.13;;
4305;SDS011;2166;49.926;8.608;2023-07-24T04:34:06;11.85;;;6.65;;
4305;SDS011;2166;49.926;8.608;2023-07-24T04:36:35;8.45;;;6.35;;
4305;SDS011;2166;49.926;8.608;2023-07-24T04:39:04;9.52;;;6.95;;
4305;SDS011;2166;49.926;8.608;2023-07-24T04:41:32;12.18;;;6.45;;
4305;SDS011;2166;49.926;8.608;2023-07-24T04:44:00;8.35;;;6.55;;
4305;SDS011;2166;49.926;8.608;2023-07-24T04:46:29;9.88;;;6.80;;
4305;SDS011;2166;49.926;8.608;2023-07-24T04:48:58;8.77;;;6.63;;
4305;SDS011;2166;49.926;8.608;2023-07-24T04:51:27;10.05;;;6.28;;
4305;SDS011;2166;49.926;8.608;2023-07-24T04:53:57;10.25;;;6.65;;
4305;SDS011;2166;49.926;8.608;2023-07-24T04:56:25;9.48;;;6.75;;
4305;SDS011;2166;49.926;8.608;2023-07-24T04:58:54;9.27;;;6.40;;
4305;SDS011;2166;49.926;8.608;2023-07-24T05:01:22;7.93;;;6.10;;
4305;SDS011;2166;49.926;8.608;2023-07-24T05:03:51;8.35;;;6.35;;
4305;SDS011;2166;49.926;8.608;2023-07-24T05:06:20;8.10;;;6.13;;
4305;SDS011;2166;49.926;8.608;2023-07-24T05:08:49;10.32;;;5.68;;
4305;SDS011;2166;49.926;8.608;2023-07-24T05:11:21;13.70;;;6.28;;
4305;SDS011;2166;49.926;8.608;2023-07-24T05:13:50;9.98;;;6.68;;
4305;SDS011;2166;49.926;8.608;2023-07-24T05:16:18;10.73;;;6.95;;
4305;SDS011;2166;49.926;8.608;2023-07-24T05:18:47;9.90;;;6.00;;
4305;SDS011;2166;49.926;8.608;2023-07-24T05:21:17;9.82;;;7.00;;
4305;SDS011;2166;49.926;8.608;2023-07-24T05:23:46;14.93;;;7.15;;
4305;SDS011;2166;49.926;8.608;2023-07-24T05:26:14;10.45;;;5.97;;
4305;SDS011;2166;49.926;8.608;2023-07-24T05:28:44;12.73;;;6.18;;
4305;SDS011;2166;49.926;8.608;2023-07-24T05:31:12;10.60;;;6.25;;
4305;SDS011;2166;49.926;8.608;2023-07-24T05:33:41;7.47;;;5.90;;
4305;SDS011;2166;49.926;8.608;2023-07-24T05:36:09;9.90;;;6.93;;
4305;SDS011;2166;49.926;8.608;2023-07-24T05:38:37;13.23;;;6.60;;
4305;SDS011;2166;49.926;8.608;2023-07-24T05:41:06;9.43;;;5.95;;
4305;SDS011;2166;49.926;8.608;2023-07-24T05:43:35;11.50;;;6.95;;
4305;SDS011;2166;49.926;8.608;2023-07-24T05:46:04;8.98;;;7.13;;
4305;SDS011;2166;49.926;8.608;2023-07-24T05:48:32;11.15;;;6.80;;
4305;SDS011;2166;49.926;8.608;2023-07-24T05:51:01;8.68;;;6.45;;
4305;SDS011;2166;49.926;8.608;2023-07-24T05:53:29;9.18;;;6.45;;
4305;SDS011;2166;49.926;8.608;2023-07-24T05:55:58;11.25;;;7.32;;
4305;SDS011;2166;49.926;8.608;2023-07-24T05:58:27;8.38;;;6.63;;
4305;SDS011;2166;49.926;8.608;2023-07-24T06:00:58;9.50;;;6.97;;
4305;SDS011;2166;49.926;8.608;2023-07-24T06:03:28;12.32;;;7.13;;
4305;SDS011;2166;49.926;8.608;2023-07-24T06:05:56;11.73;;;7.43;;
4305;SDS011;2166;49.926;8.608;2023-07-24T06:08:25;9.35;;;7.00;;
4305;SDS011;2166;49.926;8.608;2023-07-24T06:10:53;12.98;;;7.68;;
4305;SDS011;2166;49.926;8.608;2023-07-24T06:13:22;11.43;;;7.10;;
4305;SDS011;2166;49.926;8.608;2023-07-24T06:15:51;10.48;;;6.47;;
4305;SDS011;2166;49.926;8.608;2023-07-24T06:18:23;9.63;;;7.30;;
4305;SDS011;2166;49.926;8.608;2023-07-24T06:20:53;10.70;;;6.78;;
4305;SDS011;2166;49.926;8.608;2023-07-24T06:23:22;16.42;;;8.18;;
4305;SDS011;2166;49.926;8.608;2023-07-24T06:25:50;15.00;;;8.00;;
4305;SDS011;2166;49.926;8.608;2023-07-24T06:28:20;10.13;;;7.38;;
4305;SDS011;2166;49.926;8.608;2023-07-24T06:30:51;11.52;;;7.78;;
4305;SDS011;2166;49.926;8.608;2023-07-24T06:33:21;13.80;;;7.97;;
4305;SDS011;2166;49.926;8.608;2023-07-24T06:35:49;13.63;;;8.30;;
4305;SDS011;2166;49.926;8.608;2023-07-24T06:38:19;10.70;;;7.82;;
4305;SDS011;2166;49.926;8.608;2023-07-24T06:40:49;17.67;;;8.40;;
4305;SDS011;2166;49.926;8.608;2023-07-24T06:43:17;9.30;;;7.45;;
4305;SDS011;2166;49.926;8.608;2023-07-24T06:45:47;11.18;;;7.88;;
4305;SDS011;2166;49.926;8.608;2023-07-24T06:48:16;15.93;;;7.45;;
4305;SDS011;2166;49.926;8.608;2023-07-24T06:50:44;10.00;;;7.38;;
4305;SDS011;2166;49.926;8.608;2023-07-24T06:53:13;14.63;;;7.70;;
4305;SDS011;2166;49.926;8.608;2023-07-24T06:55:43;12.65;;;7.65;;
4305;SDS011;2166;49.926;8.608;2023-07-24T06:58:11;11.07;;;7.38;;
4305;SDS011;2166;49.926;8.608;2023-07-24T07:00:40;11.18;;;8.15;;
4305;SDS011;2166;49.926;8.608;2023-07-24T07:03:08;10.13;;;6.88;;
4305;SDS011;2166;49.926;8.608;2023-07-24T07:05:37;10.15;;;7.63;;
4305;SDS011;2166;49.926;8.608;2023-07-24T07:08:06;13.25;;;7.43;;
4305;SDS011;2166;49.926;8.608;2023-07-24T07:10:34;12.13;;;7.10;;
4305;SDS011;2166;49.926;8.608;2023-07-24T07:13:04;15.43;;;7.70;;
4305;SDS011;2166;49.926;8.608;2023-07-24T07:15:35;11.73;;;7.63;;
4305;SDS011;2166;49.926;8.608;2023-07-24T07:18:04;11.73;;;7.35;;
4305;SDS011;2166;49.926;8.608;2023-07-24T07:20:34;12.98;;;7.88;;
4305;SDS011;2166;49.926;8.608;2023-07-24T07:23:02;9.38;;;6.63;;
4305;SDS011;2166;49.926;8.608;2023-07-24T07:25:31;12.90;;;7.22;;
4305;SDS011;2166;49.926;8.608;2023-07-24T07:27:59;13.90;;;7.93;;
4305;SDS011;2166;49.926;8.608;2023-07-24T07:30:29;10.52;;;6.97;;
4305;SDS011;2166;49.926;8.608;2023-07-24T07:32:57;13.18;;;7.10;;
4305;SDS011;2166;49.926;8.608;2023-07-24T07:35:26;11.35;;;7.13;;
4305;SDS011;2166;49.926;8.608;2023-07-24T07:37:54;13.38;;;7.80;;
4305;SDS011;2166;49.926;8.608;2023-07-24T07:40:23;9.20;;;6.63;;
4305;SDS011;2166;49.926;8.608;2023-07-24T07:42:53;8.75;;;6.80;;
4305;SDS011;2166;49.926;8.608;2023-07-24T07:45:22;8.20;;;5.97;;
4305;SDS011;2166;49.926;8.608;2023-07-24T07:47:52;7.13;;;5.60;;
4305;SDS011;2166;49.926;8.608;2023-07-24T07:50:21;11.82;;;5.20;;
4305;SDS011;2166;49.926;8.608;2023-07-24T07:52:50;9.40;;;5.75;;
4305;SDS011;2166;49.926;8.608;2023-07-24T07:55:18;7.20;;;5.63;;
4305;SDS011;2166;49.926;8.608;2023-07-24T07:57:48;8.70;;;5.82;;
4305;SDS011;2166;49.926;8.608;2023-07-24T08:00:16;6.97;;;5.75;;
4305;SDS011;2166;49.926;8.608;2023-07-24T08:02:45;9.45;;;6.05;;
4305;SDS011;2166;49.926;8.608;2023-07-24T08:05:15;7.35;;;5.50;;
4305;SDS011;2166;49.926;8.608;2023-07-24T08:07:47;7.25;;;5.22;;
4305;SDS011;2166;49.926;8.608;2023-07-24T08:10:15;6.53;;;4.70;;
4305;SDS011;2166;49.926;8.608;2023-07-24T08:12:43;7.15;;;4.72;;
4305;SDS011;2166;49.926;8.608;2023-07-24T08:15:12;9.38;;;5.28;;
4305;SDS011;2166;49.926;8.608;2023-07-24T08:17:40;8.02;;;5.70;;
4305;SDS011;2166;49.926;8.608;2023-07-24T08:20:09;14.85;;;5.57;;
4305;SDS011;2166;49.926;8.608;2023-07-24T08:22:39;7.80;;;5.57;;
4305;SDS011;2166;49.926;8.608;2023-07-24T08:25:07;8.75;;;5.50;;
4305;SDS011;2166;49.926;8.608;2023-07-24T08:27:36;7.10;;;5.18;;
4305;SDS011;2166;49.926;8.608;2023-07-24T08:30:25;9.10;;;4.95;;
4305;SDS011;2166;49.926;8.608;2023-07-24T08:32:53;8.07;;;4.60;;
4305;SDS011;2166;49.926;8.608;2023-07-24T08:35:21;7.72;;;4.90;;
4305;SDS011;2166;49.926;8.608;2023-07-24T08:37:51;7.75;;;4.72;;
4305;SDS011;2166;49.926;8.608;2023-07-24T08:40:20;9.80;;;4.97;;
4305;SDS011;2166;49.926;8.608;2023-07-24T08:42:48;5.72;;;4.78;;
4305;SDS011;2166;49.926;8.608;2023-07-24T08:45:19;7.13;;;4.22;;
4305;SDS011;2166;49.926;8.608;2023-07-24T08:47:48;7.80;;;4.10;;
4305;SDS011;2166;49.926;8.608;2023-07-24T08:50:17;8.27;;;4.22;;
4305;SDS011;2166;49.926;8.608;2023-07-24T08:52:48;7.60;;;4.50;;
4305;SDS011;2166;49.926;8.608;2023-07-24T08:55:18;7.35;;;4.53;;
4305;SDS011;2166;49.926;8.608;2023-07-24T08:57:49;6.57;;;4.53;;
4305;SDS011;2166;49.926;8.608;2023-07-24T09:00:17;10.98;;;5.43;;
4305;SDS011;2166;49.926;8.608;2023-07-24T09:02:46;10.32;;;5.13;;
4305;SDS011;2166;49.926;8.608;2023-07-24T09:05:15;9.45;;;5.55;;
4305;SDS011;2166;49.926;8.608;2023-07-24T09:07:44;7.03;;;5.50;;
4305;SDS011;2166;49.926;8.608;2023-07-24T09:10:13;7.53;;;4.57;;
4305;SDS011;2166;49.926;8.608;2023-07-24T09:12:43;6.32;;;3.92;;
4305;SDS011;2166;49.926;8.608;2023-07-24T09:15:12;6.03;;;4.28;;
4305;SDS011;2166;49.926;8.608;2023-07-24T09:17:47;6.20;;;4.20;;
4305;SDS011;2166;49.926;8.608;2023-07-24T09:20:17;9.63;;;4.68;;
4305;SDS011;2166;49.926;8.608;2023-07-24T09:22:57;8.95;;;4.90;;
4305;SDS011;2166;49.926;8.608;2023-07-24T09:25:42;12.25;;;4.72;;
4305;SDS011;2166;49.926;8.608;2023-07-24T09:28:13;7.78;;;4.40;;
4305;SDS011;2166;49.926;8.608;2023-07-24T09:30:51;7.15;;;4.97;;
4305;SDS011;2166;49.926;8.608;2023-07-24T09:33:20;11.57;;;5.97;;
4305;SDS011;2166;49.926;8.608;2023-07-24T09:35:57;9.52;;;5.22;;
4305;SDS011;2166;49.926;8.608;2023-07-24T09:38:26;8.68;;;5.22;;
4305;SDS011;2166;49.926;8.608;2023-07-24T09:40:55;10.07;;;5.88;;
4305;SDS011;2166;49.926;8.608;2023-07-24T09:43:27;9.85;;;5.97;;
4305;SDS011;2166;49.926;8.608;2023-07-24T09:46:06;9.20;;;4.95;;
4305;SDS011;2166;49.926;8.608;2023-07-24T09:48:37;18.65;;;6.13;;
4305;SDS011;2166;49.926;8.608;2023-07-24T09:51:26;15.07;;;6.43;;
4305;SDS011;2166;49.926;8.608;2023-07-24T09:53:59;8.77;;;5.57;;
4305;SDS011;2166;49.926;8.608;2023-07-24T09:56:33;9.85;;;5.38;;
4305;SDS011;2166;49.926;8.608;2023-07-24T09:59:16;5.72;;;5.00;;
4305;SDS011;2166;49.926;8.608;2023-07-24T10:01:47;11.20;;;5.78;;
4305;SDS011;2166;49.926;8.608;2023-07-24T10:04:18;8.63;;;5.13;;
4305;SDS011;2166;49.926;8.608;2023-07-24T10:06:48;8.55;;;4.53;;
4305;SDS011;2166;49.926;8.608;2023-07-24T10:09:17;9.88;;;5.38;;
4305;SDS011;2166;49.926;8.608;2023-07-24T10:11:50;5.32;;;3.83;;
4305;SDS011;2166;49.926;8.608;2023-07-24T10:14:20;11.85;;;4.75;;
4305;SDS011;2166;49.926;8.608;2023-07-24T10:16:49;6.78;;;4.47;;
4305;SDS011;2166;49.926;8.608;2023-07-24T10:19:22;8.23;;;4.32;;
4305;SDS011;2166;49.926;8.608;2023-07-24T10:21:50;5.85;;;4.55;;
4305;SDS011;2166;49.926;8.608;2023-07-24T10:24:19;10.10;;;4.20;;
4305;SDS011;2166;49.926;8.608;2023-07-24T10:27:07;7.90;;;4.20;;
4305;SDS011;2166;49.926;8.608;2023-07-24T10:29:36;5.68;;;4.88;;
4305;SDS011;2166;49.926;8.608;2023-07-24T10:32:16;7.47;;;4.45;;
4305;SDS011;2166;49.926;8.608;2023-07-24T10:34:45;6.60;;;4.80;;
4305;SDS011;2166;49.926;8.608;2023-07-24T10:37:30;6.90;;;5.45;;
4305;SDS011;2166;49.926;8.608;2023-07-24T10:40:00;8.65;;;4.88;;
4305;SDS011;2166;49.926;8.608;2023-07-24T10:42:30;6.60;;;4.90;;
4305;SDS011;2166;49.926;8.608;2023-07-24T10:45:05;8.02;;;5.07;;
4305;SDS011;2166;49.926;8.608;2023-07-24T10:47:35;7.88;;;4.47;;
4305;SDS011;2166;49.926;8.608;2023-07-24T10:50:03;8.40;;;5.60;;
4305;SDS011;2166;49.926;8.608;2023-07-24T10:52:33;7.70;;;5.22;;
4305;SDS011;2166;49.926;8.608;2023-07-24T10:55:01;6.50;;;5.35;;
4305;SDS011;2166;49.926;8.608;2023-07-24T10:57:31;9.98;;;5.28;;
4305;SDS011;2166;49.926;8.608;2023-07-24T11:00:00;8.48;;;5.38;;
4305;SDS011;2166;49.926;8.608;2023-07-24T11:02:31;8.27;;;4.18;;
4305;SDS011;2166;49.926;8.608;2023-07-24T11:05:00;9.57;;;5.00;;
4305;SDS011;2166;49.926;8.608;2023-07-24T11:07:31;9.18;;;5.28;;
4305;SDS011;2166;49.926;8.608;2023-07-24T11:10:00;9.23;;;4.72;;
4305;SDS011;2166;49.926;8.608;2023-07-24T11:12:29;9.63;;;4.75;;
4305;SDS011;2166;49.926;8.608;2023-07-24T11:14:58;7.55;;;4.80;;
4305;SDS011;2166;49.926;8.608;2023-07-24T11:17:34;6.80;;;4.00;;
4305;SDS011;2166;49.926;8.608;2023-07-24T11:20:05;5.97;;;4.68;;
4305;SDS011;2166;49.926;8.608;2023-07-24T11:22:35;10.02;;;4.03;;
4305;SDS011;2166;49.926;8.608;2023-07-24T11:25:07;9.40;;;4.00;;
4305;SDS011;2166;49.926;8.608;2023-07-24T11:27:38;7.30;;;4.18;;
4305;SDS011;2166;49.926;8.608;2023-07-24T11:30:08;5.93;;;4.05;;
4305;SDS011;2166;49.926;8.608;2023-07-24T11:32:39;5.15;;;4.15;;
4305;SDS011;2166;49.926;8.608;2023-07-24T11:35:08;8.38;;;3.70;;
4305;SDS011;2166;49.926;8.608;2023-07-24T11:37:37;7.50;;;3.65;;
4305;SDS011;2166;49.926;8.608;2023-07-24T11:40:06;5.45;;;3.63;;
4305;SDS011;2166;49.926;8.608;2023-07-24T11:42:38;7.45;;;3.53;;
4305;SDS011;2166;49.926;8.608;2023-07-24T11:45:07;8.73;;;4.00;;
4305;SDS011;2166;49.926;8.608;2023-07-24T11:47:42;6.18;;;4.13;;
4305;SDS011;2166;49.926;8.608;2023-07-24T11:50:15;5.47;;;3.90;;
4305;SDS011;2166;49.926;8.608;2023-07-24T11:52:45;8.93;;;4.50;;
4305;SDS011;2166;49.926;8.608;2023-07-24T11:55:15;7.60;;;4.93;;
4305;SDS011;2166;49.926;8.608;2023-07-24T11:57:54;7.53;;;5.43;;
4305;SDS011;2166;49.926;8.608;2023-07-24T12:00:23;7.35;;;5.00;;
4305;SDS011;2166;49.926;8.608;2023-07-24T12:02:58;7.65;;;4.38;;
4305;SDS011;2166;49.926;8.608;2023-07-24T12:05:27;8.05;;;4.82;;
4305;SDS011;2166;49.926;8.608;2023-07-24T12:07:55;9.73;;;4.90;;
4305;SDS011;2166;49.926;8.608;2023-07-24T12:10:29;6.17;;;3.47;;
4305;SDS011;2166;49.926;8.608;2023-07-24T12:12:58;3.72;;;2.72;;
4305;SDS011;2166;49.926;8.608;2023-07-24T12:15:27;5.05;;;3.63;;
4305;SDS011;2166;49.926;8.608;2023-07-24T12:17:57;6.97;;;3.20;;
4305;SDS011;2166;49.926;8.608;2023-07-24T12:20:26;6.85;;;3.85;;
4305;SDS011;2166;49.926;8.608;2023-07-24T12:22:56;4.63;;;3.25;;
4305;SDS011;2166;49.926;8.608;2023-07-24T12:25:24;5.50;;;3.90;;
4305;SDS011;2166;49.926;8.608;2023-07-24T12:27:53;4.22;;;2.78;;
4305;SDS011;2166;49.926;8.608;2023-07-24T12:30:22;8.25;;;3.35;;
4305;SDS011;2166;49.926;8.608;2023-07-24T12:32:52;5.38;;;3.35;;
4305;SDS011;2166;49.926;8.608;2023-07-24T12:35:23;4.10;;;3.65;;
4305;SDS011;2166;49.926;8.608;2023-07-24T12:37:51;4.20;;;3.70;;
4305;SDS011;2166;49.926;8.608;2023-07-24T12:40:20;4.78;;;3.75;;
4305;SDS011;2166;49.926;8.608;2023-07-24T12:42:49;10.00;;;3.70;;
4305;SDS011;2166;49.926;8.608;2023-07-24T12:45:17;9.07;;;3.42;;
4305;SDS011;2166;49.926;8.608;2023-07-24T12:47:46;5.25;;;3.65;;
4305;SDS011;2166;49.926;8.608;2023-07-24T12:50:14;4.55;;;3.65;;
4305;SDS011;2166;49.926;8.608;2023-07-24T12:52:44;5.15;;;3.30;;
4305;SDS011;2166;49.926;8.608;2023-07-24T12:55:13;4.38;;;3.33;;
4305;SDS011;2166;49.926;8.608;2023-07-24T12:57:42;5.25;;;3.75;;
4305;SDS011;2166;49.926;8.608;2023-07-24T13:00:11;5.47;;;3.85;;
4305;SDS011;2166;49.926;8.608;2023-07-24T13:02:40;8.07;;;3.80;;
4305;SDS011;2166;49.926;8.608;2023-07-24T13:05:09;7.72;;;4.97;;
4305;SDS011;2166;49.926;8.608;2023-07-24T13:07:39;6.32;;;4.43;;
4305;SDS011;2166;49.926;8.608;2023-07-24T13:10:09;5.25;;;4.53;;
4305;SDS011;2166;49.926;8.608;2023-07-24T13:12:38;6.97;;;4.45;;
4305;SDS011;2166;49.926;8.608;2023-07-24T13:15:07;6.22;;;4.55;;
4305;SDS011;2166;49.926;8.608;2023-07-24T13:17:36;8.23;;;4.32;;
4305;SDS011;2166;49.926;8.608;2023-07-24T13:20:06;5.80;;;4.38;;
4305;SDS011;2166;49.926;8.608;2023-07-24T13:22:36;12.23;;;4.72;;
4305;SDS011;2166;49.926;8.608;2023-07-24T13:25:04;9.90;;;4.68;;
4305;SDS011;2166;49.926;8.608;2023-07-24T13:27:34;8.60;;;4.72;;
4305;SDS011;2166;49.926;8.608;2023-07-24T13:30:03;8.38;;;5.35;;
4305;SDS011;2166;49.926;8.608;2023-07-24T13:32:32;9.85;;;5.30;;
4305;SDS011;2166;49.926;8.608;2023-07-24T13:35:01;7.05;;;4.60;;
4305;SDS011;2166;49.926;8.608;2023-07-24T13:37:30;7.72;;;5.38;;
4305;SDS011;2166;49.926;8.608;2023-07-24T13:39:59;10.98;;;6.03;;
4305;SDS011;2166;49.926;8.608;2023-07-24T13:42:28;14.07;;;7.65;;
4305;SDS011;2166;49.926;8.608;2023-07-24T13:44:58;13.13;;;7.55;;
4305;SDS011;2166;49.926;8.608;2023-07-24T13:47:27;9.80;;;7.35;;
4305;SDS011;2166;49.926;8.608;2023-07-24T13:49:55;8.48;;;7.22;;
4305;SDS011;2166;49.926;8.608;2023-07-24T13:52:26;11.57;;;7.55;;
4305;SDS011;2166;49.926;8.608;2023-07-24T13:54:54;13.10;;;7.72;;
4305;SDS011;2166;49.926;8.608;2023-07-24T13:57:24;11.40;;;6.30;;
4305;SDS011;2166;49.926;8.608;2023-07-24T13:59:53;12.82;;;8.25;;
4305;SDS011;2166;49.926;8.608;2023-07-24T14:02:23;12.23;;;8.52;;
4305;SDS011;2166;49.926;8.608;2023-07-24T14:04:54;9.40;;;6.57;;
4305;SDS011;2166;49.926;8.608;2023-07-24T14:07:22;2.97;;;2.25;;
4305;SDS011;2166;49.926;8.608;2023-07-24T14:09:51;3.88;;;2.22;;
4305;SDS011;2166;49.926;8.608;2023-07-24T14:12:19;3.30;;;2.03;;
4305;SDS011;2166;49.926;8.608;2023-07-24T14:14:48;3.42;;;2.60;;
4305;SDS011;2166;49.926;8.608;2023-07-24T14:17:17;3.47;;;2.97;;
4305;SDS011;2166;49.926;8.608;2023-07-24T14:19:49;5.75;;;4.05;;
4305;SDS011;2166;49.926;8.608;2023-07-24T14:22:17;9.02;;;4.78;;
4305;SDS011;2166;49.926;8.608;2023-07-24T14:24:46;6.72;;;4.57;;
4305;SDS011;2166;49.926;8.608;2023-07-24T14:27:14;6.90;;;4.80;;
4305;SDS011;2166;49.926;8.608;2023-07-24T14:29:43;7.13;;;4.80;;
4305;SDS011;2166;49.926;8.608;2023-07-24T14:32:11;8.25;;;4.82;;
4305;SDS011;2166;49.926;8.608;2023-07-24T14:34:39;9.35;;;5.35;;
4305;SDS011;2166;49.926;8.608;2023-07-24T14:37:11;10.52;;;5.25;;
4305;SDS011;2166;49.926;8.608;2023-07-24T14:39:40;7.28;;;4.68;;
4305;SDS011;2166;49.926;8.608;2023-07-24T14:42:10;5.65;;;4.15;;
4305;SDS011;2166;49.926;8.608;2023-07-24T14:44:39;4.80;;;3.65;;
4305;SDS011;2166;49.926;8.608;2023-07-24T14:47:08;7.15;;;4.22;;
4305;SDS011;2166;49.926;8.608;2023-07-24T14:49:37;3.97;;;2.88;;
4305;SDS011;2166;49.926;8.608;2023-07-24T14:52:05;6.05;;;3.90;;
4305;SDS011;2166;49.926;8.608;2023-07-24T14:54:36;4.70;;;3.60;;
4305;SDS011;2166;49.926;8.608;2023-07-24T14:57:05;6.05;;;3.60;;
4305;SDS011;2166;49.926;8.608;2023-07-24T14:59:49;4.90;;;3.03;;
4305;SDS011;2166;49.926;8.608;2023-07-24T15:02:18;6.63;;;3.72;;
4305;SDS011;2166;49.926;8.608;2023-07-24T15:04:47;4.18;;;3.17;;
4305;SDS011;2166;49.926;8.608;2023-07-24T15:07:15;3.90;;;2.78;;
4305;SDS011;2166;49.926;8.608;2023-07-24T15:09:45;4.05;;;2.70;;
4305;SDS011;2166;49.926;8.608;2023-07-24T15:12:14;3.20;;;2.60;;
4305;SDS011;2166;49.926;8.608;2023-07-24T15:14:42;2.72;;;2.38;;
4305;SDS011;2166;49.926;8.608;2023-07-24T15:17:10;2.78;;;1.85;;
4305;SDS011;2166;49.926;8.608;2023-07-24T15:19:41;3.15;;;1.90;;
4305;SDS011;2166;49.926;8.608;2023-07-24T15:22:09;3.45;;;2.08;;
4305;SDS011;2166;49.926;8.608;2023-07-24T15:24:39;3.03;;;2.55;;
4305;SDS011;2166;49.926;8.608;2023-07-24T15:27:09;5.10;;;2.33;;